createdAt,value
2023-01-08T00:00:11.414Z,4.5
2023-01-08T00:01:11.456Z,4.5
2023-01-08T00:02:11.433Z,4.5
2023-01-08T00:03:11.484Z,4.5
2023-01-08T00:04:11.455Z,4.5
2023-01-08T00:05:11.494Z,4.5
2023-01-08T00:06:11.411Z,4.5
2023-01-08T00:07:11.436Z,4.5
2023-01-08T00:08:11.430Z,4.5
2023-01-08T00:09:11.410Z,4.5
2023-01-08T00:10:11.414Z,4.6
2023-01-08T00:11:11.436Z,4.6
2023-01-08T00:12:11.379Z,4.6
2023-01-08T00:13:11.436Z,4.6
2023-01-08T00:14:11.408Z,4.6
2023-01-08T00:15:11.445Z,4.6
2023-01-08T00:16:11.479Z,4.6
2023-01-08T00:17:11.449Z,4.6
2023-01-08T00:18:11.467Z,4.6
2023-01-08T00:19:11.390Z,4.6
2023-01-08T00:20:11.394Z,4.6
2023-01-08T00:21:11.427Z,4.6
2023-01-08T00:22:11.391Z,4.6
2023-01-08T00:23:11.414Z,4.6
2023-01-08T00:24:11.417Z,4.6
2023-01-08T00:25:11.420Z,4.6
2023-01-08T00:26:11.489Z,4.6
2023-01-08T00:27:11.436Z,4.6
2023-01-08T00:28:11.442Z,4.6
2023-01-08T00:29:11.473Z,4.6
2023-01-08T00:30:11.410Z,4.6
2023-01-08T00:31:11.515Z,4.6
2023-01-08T00:32:11.415Z,4.6
2023-01-08T00:33:11.452Z,4.6
2023-01-08T00:34:11.429Z,4.6
2023-01-08T00:35:11.479Z,4.6
2023-01-08T00:36:11.440Z,4.6
2023-01-08T00:37:11.468Z,4.6
2023-01-08T00:38:11.404Z,4.6
2023-01-08T00:39:11.436Z,4.6
2023-01-08T00:40:11.433Z,4.6
2023-01-08T00:41:11.419Z,4.6
2023-01-08T00:42:11.406Z,4.6
2023-01-08T00:43:11.435Z,4
2023-01-08T00:44:11.485Z,4
2023-01-08T00:45:11.473Z,4
2023-01-08T00:46:11.486Z,4
2023-01-08T00:47:11.431Z,4
2023-01-08T00:48:11.407Z,4
2023-01-08T00:49:11.432Z,4
2023-01-08T00:50:11.431Z,4
2023-01-08T00:51:11.447Z,4
2023-01-08T00:52:11.426Z,4
2023-01-08T00:53:11.448Z,4
2023-01-08T00:54:11.556Z,4
2023-01-08T00:55:11.482Z,4
2023-01-08T00:56:11.497Z,4
2023-01-08T00:57:11.455Z,4
2023-01-08T00:58:11.461Z,4
2023-01-08T00:59:11.440Z,4
2023-01-08T01:00:11.525Z,4
2023-01-08T01:01:11.676Z,4
2023-01-08T01:02:11.658Z,4
2023-01-08T01:03:11.459Z,4
2023-01-08T01:04:11.505Z,4
2023-01-08T01:05:11.492Z,4
2023-01-08T01:06:11.466Z,3.7
2023-01-08T01:07:11.506Z,3.7
2023-01-08T01:08:11.464Z,3.7
2023-01-08T01:09:11.490Z,3.7
2023-01-08T01:10:11.460Z,3.7
2023-01-08T01:11:11.472Z,3.7
2023-01-08T01:12:11.488Z,3.7
2023-01-08T01:13:11.477Z,3.7
2023-01-08T01:14:11.438Z,3.7
2023-01-08T01:15:11.482Z,3.7
2023-01-08T01:16:11.544Z,3.7
2023-01-08T01:17:11.460Z,3.7
2023-01-08T01:18:11.440Z,3.5
2023-01-08T01:19:11.464Z,3.5
2023-01-08T01:20:11.433Z,3.5
2023-01-08T01:21:11.437Z,3.5
2023-01-08T01:22:11.491Z,3.5
2023-01-08T01:23:11.483Z,3.5
2023-01-08T01:24:11.479Z,3.5
2023-01-08T01:25:11.447Z,3.5
2023-01-08T01:26:11.476Z,3.5
2023-01-08T01:27:11.497Z,3.5
2023-01-08T01:28:11.462Z,3.5
2023-01-08T01:29:11.495Z,3.5
2023-01-08T01:30:11.501Z,3.5
2023-01-08T01:31:11.523Z,3.5
2023-01-08T01:32:11.486Z,3.5
2023-01-08T01:33:11.484Z,3.5
2023-01-08T01:34:11.456Z,3.5
2023-01-08T01:35:11.581Z,3.5
2023-01-08T01:36:11.486Z,3.5
2023-01-08T01:37:11.512Z,3.5
2023-01-08T01:38:11.452Z,3.5
2023-01-08T01:39:11.498Z,3.5
2023-01-08T01:40:11.490Z,3.5
2023-01-08T01:41:11.520Z,3.5
2023-01-08T01:42:11.486Z,3.5
2023-01-08T01:43:11.488Z,3.5
2023-01-08T01:44:11.529Z,3.5
2023-01-08T01:45:11.469Z,3.5
2023-01-08T01:46:11.626Z,3.5
2023-01-08T01:47:11.474Z,3.5
2023-01-08T01:48:11.545Z,3.5
2023-01-08T01:49:11.471Z,3.5
2023-01-08T01:50:11.536Z,3.5
2023-01-08T01:51:11.480Z,3.5
2023-01-08T01:52:11.480Z,3.5
2023-01-08T01:53:11.542Z,3.5
2023-01-08T01:54:11.543Z,3.5
2023-01-08T01:55:11.505Z,3.5
2023-01-08T01:56:11.502Z,3.5
2023-01-08T01:57:11.473Z,3.5
2023-01-08T01:58:11.497Z,3.5
2023-01-08T01:59:11.494Z,3.3
2023-01-08T02:00:11.545Z,3.3
2023-01-08T02:01:11.684Z,3.3
2023-01-08T02:02:11.631Z,3.3
2023-01-08T02:03:11.503Z,3.3
2023-01-08T02:04:11.607Z,3.3
2023-01-08T02:05:11.537Z,3.3
2023-01-08T02:06:11.507Z,3.3
2023-01-08T02:07:11.530Z,3.3
2023-01-08T02:08:11.501Z,3.3
2023-01-08T02:09:11.513Z,3.3
2023-01-08T02:10:11.517Z,3.3
2023-01-08T02:11:11.568Z,3.3
2023-01-08T02:12:11.531Z,3.3
2023-01-08T02:13:11.502Z,3.3
2023-01-08T02:14:11.491Z,3.3
2023-01-08T02:15:11.555Z,3.3
2023-01-08T02:16:11.522Z,3.3
2023-01-08T02:17:11.545Z,3.3
2023-01-08T02:18:11.498Z,3.3
2023-01-08T02:19:11.501Z,3.3
2023-01-08T02:20:11.511Z,3.3
2023-01-08T02:21:11.495Z,3.3
2023-01-08T02:22:11.515Z,3.3
2023-01-08T02:23:11.516Z,3.3
2023-01-08T02:24:11.534Z,3.3
2023-01-08T02:25:11.577Z,2.8
2023-01-08T02:26:11.498Z,2.8
2023-01-08T02:27:11.517Z,2.8
2023-01-08T02:28:11.500Z,2.8
2023-01-08T02:29:11.509Z,2.8
2023-01-08T02:30:11.557Z,2.8
2023-01-08T02:31:11.598Z,2.8
2023-01-08T02:32:11.517Z,2.8
2023-01-08T02:33:11.525Z,2.8
2023-01-08T02:34:11.528Z,2.8
2023-01-08T02:35:11.573Z,2.8
2023-01-08T02:36:11.522Z,2.8
2023-01-08T02:37:11.578Z,2.8
2023-01-08T02:38:11.529Z,2.8
2023-01-08T02:39:11.561Z,2.8
2023-01-08T02:40:11.567Z,2.8
2023-01-08T02:41:11.522Z,2.8
2023-01-08T02:42:11.514Z,2.8
2023-01-08T02:43:11.510Z,2.8
2023-01-08T02:44:11.598Z,2.8
2023-01-08T02:45:11.572Z,2.8
2023-01-08T02:46:11.614Z,2.8
2023-01-08T02:47:11.542Z,2.8
2023-01-08T02:48:11.565Z,2.8
2023-01-08T02:49:11.526Z,2.3
2023-01-08T02:50:11.547Z,2.3
2023-01-08T02:51:11.596Z,2.3
2023-01-08T02:52:11.537Z,2.3
2023-01-08T02:53:11.777Z,2.3
2023-01-08T02:54:11.539Z,2.3
2023-01-08T02:55:11.545Z,2.3
2023-01-08T02:56:11.572Z,2.3
2023-01-08T02:57:11.564Z,2.3
2023-01-08T02:58:11.534Z,2.3
2023-01-08T02:59:11.571Z,2.4
2023-01-08T03:00:11.556Z,2.4
2023-01-08T03:01:11.778Z,2.4
2023-01-08T03:02:11.771Z,2.4
2023-01-08T03:03:11.573Z,2.4
2023-01-08T03:04:11.588Z,2.4
2023-01-08T03:05:11.588Z,2.4
2023-01-08T03:06:11.591Z,2.4
2023-01-08T03:07:11.543Z,2.4
2023-01-08T03:08:11.558Z,2.4
2023-01-08T03:09:11.538Z,2.4
2023-01-08T03:10:11.574Z,2.4
2023-01-08T03:11:11.592Z,2.4
2023-01-08T03:12:11.569Z,2.4
2023-01-08T03:13:11.539Z,2.4
2023-01-08T03:14:11.531Z,2.4
2023-01-08T03:15:11.542Z,2.4
2023-01-08T03:16:11.607Z,2.4
2023-01-08T03:17:11.533Z,2.1
2023-01-08T03:18:11.546Z,2.1
2023-01-08T03:19:11.584Z,2.1
2023-01-08T03:20:11.541Z,2.1
2023-01-08T03:21:11.547Z,2.1
2023-01-08T03:22:11.566Z,2.1
2023-01-08T03:23:11.545Z,2.1
2023-01-08T03:24:11.558Z,2.1
2023-01-08T03:25:11.566Z,2.1
2023-01-08T03:26:11.572Z,2.1
2023-01-08T03:27:11.606Z,2.1
2023-01-08T03:28:11.549Z,2.1
2023-01-08T03:29:11.587Z,2.1
2023-01-08T03:30:11.586Z,2.1
2023-01-08T03:31:11.737Z,1.6
2023-01-08T03:32:11.586Z,1.6
2023-01-08T03:33:11.574Z,1.6
2023-01-08T03:34:11.604Z,1.6
2023-01-08T03:35:11.649Z,1.6
2023-01-08T03:36:11.584Z,1.6
2023-01-08T03:37:11.575Z,1.6
2023-01-08T03:38:11.591Z,1.6
2023-01-08T03:39:11.601Z,1.6
2023-01-08T03:40:11.621Z,1.6
2023-01-08T03:41:11.651Z,1.6
2023-01-08T03:42:11.599Z,1.6
2023-01-08T03:43:11.586Z,1.6
2023-01-08T03:44:11.591Z,1.6
2023-01-08T03:45:11.586Z,1.6
2023-01-08T03:46:11.635Z,1.6
2023-01-08T03:47:11.575Z,1.6
2023-01-08T03:48:11.578Z,1.6
2023-01-08T03:49:11.601Z,1.6
2023-01-08T03:50:11.597Z,1.6
2023-01-08T03:51:11.584Z,1.6
2023-01-08T03:52:11.637Z,1.6
2023-01-08T03:53:11.606Z,1.6
2023-01-08T03:54:11.580Z,1.6
2023-01-08T03:55:11.613Z,1.6
2023-01-08T03:56:11.603Z,1.9
2023-01-08T03:57:11.589Z,1.9
2023-01-08T03:58:11.586Z,1.9
2023-01-08T03:59:11.610Z,1.9
2023-01-08T04:00:11.608Z,1.9
2023-01-08T04:01:11.801Z,1.9
2023-01-08T04:02:11.733Z,1.9
2023-01-08T04:03:11.609Z,1.9
2023-01-08T04:04:11.665Z,1.9
2023-01-08T04:05:11.661Z,1.9
2023-01-08T04:06:11.701Z,1.9
2023-01-08T04:07:11.616Z,1.9
2023-01-08T04:08:11.645Z,1.9
2023-01-08T04:09:11.605Z,1.9
2023-01-08T04:10:11.602Z,1.9
2023-01-08T04:11:11.706Z,1.9
2023-01-08T04:12:11.616Z,1.9
2023-01-08T04:13:11.618Z,1.9
2023-01-08T04:14:11.634Z,1.9
2023-01-08T04:15:11.622Z,1.9
2023-01-08T04:16:11.752Z,1.9
2023-01-08T04:17:11.619Z,1.9
2023-01-08T04:18:11.620Z,1.9
2023-01-08T04:19:11.664Z,1.9
2023-01-08T04:20:11.592Z,1.9
2023-01-08T04:21:11.672Z,1.9
2023-01-08T04:22:11.647Z,1.9
2023-01-08T04:23:11.606Z,1.9
2023-01-08T04:24:11.622Z,1.9
2023-01-08T04:25:11.624Z,1.9
2023-01-08T04:26:11.627Z,1.9
2023-01-08T04:27:11.608Z,1.9
2023-01-08T04:28:11.623Z,1.9
2023-01-08T04:29:11.639Z,1.9
2023-01-08T04:30:11.627Z,1.9
2023-01-08T04:31:11.701Z,1.9
2023-01-08T04:32:11.639Z,1.9
2023-01-08T04:33:11.630Z,1.9
2023-01-08T04:34:11.678Z,1.9
2023-01-08T04:35:11.671Z,1.9
2023-01-08T04:36:11.610Z,1.9
2023-01-08T04:37:11.631Z,1.9
2023-01-08T04:38:11.805Z,1.9
2023-01-08T04:39:11.629Z,1.9
2023-01-08T04:40:11.674Z,1.9
2023-01-08T04:41:11.633Z,1.9
2023-01-08T04:42:11.607Z,1.9
2023-01-08T04:43:11.645Z,1.9
2023-01-08T04:44:11.668Z,1.9
2023-01-08T04:45:11.643Z,1.9
2023-01-08T04:46:11.799Z,1.9
2023-01-08T04:47:11.638Z,1.9
2023-01-08T04:48:11.639Z,1.9
2023-01-08T04:49:11.637Z,1.9
2023-01-08T04:50:11.679Z,1.9
2023-01-08T04:51:11.644Z,1.9
2023-01-08T04:52:11.646Z,1.9
2023-01-08T04:53:11.689Z,1.9
2023-01-08T04:54:11.641Z,1.9
2023-01-08T04:55:11.699Z,1.9
2023-01-08T04:56:11.670Z,1.9
2023-01-08T04:57:11.671Z,1.9
2023-01-08T04:58:11.694Z,1.9
2023-01-08T04:59:11.634Z,1.9
2023-01-08T05:00:11.650Z,1.9
2023-01-08T05:01:11.880Z,1.9
2023-01-08T05:02:11.931Z,1.9
2023-01-08T05:03:11.725Z,1.9
2023-01-08T05:04:11.668Z,1.9
2023-01-08T05:05:11.676Z,1.9
2023-01-08T05:06:11.655Z,1.9
2023-01-08T05:07:11.687Z,1.9
2023-01-08T05:08:11.677Z,1.9
2023-01-08T05:09:11.673Z,1.9
2023-01-08T05:10:11.645Z,1.9
2023-01-08T05:11:11.638Z,1.9
2023-01-08T05:12:11.653Z,1.9
2023-01-08T05:13:11.678Z,1.9
2023-01-08T05:14:11.702Z,1.9
2023-01-08T05:15:11.676Z,1.9
2023-01-08T05:16:11.739Z,1.9
2023-01-08T05:17:11.676Z,1.9
2023-01-08T05:18:11.667Z,1.9
2023-01-08T05:19:11.653Z,1.9
2023-01-08T05:20:11.679Z,1.9
2023-01-08T05:21:11.658Z,1.9
2023-01-08T05:22:11.659Z,1.9
2023-01-08T05:23:11.724Z,1.9
2023-01-08T05:24:11.682Z,1.9
2023-01-08T05:25:11.692Z,1.9
2023-01-08T05:26:11.681Z,1.9
2023-01-08T05:27:11.683Z,1.9
2023-01-08T05:28:11.680Z,1.9
2023-01-08T05:29:11.720Z,1.9
2023-01-08T05:30:11.675Z,1.9
2023-01-08T05:31:13.768Z,1.9
2023-01-08T05:32:11.659Z,1.9
2023-01-08T05:33:11.663Z,1.9
2023-01-08T05:34:11.663Z,1.9
2023-01-08T05:35:11.680Z,1.9
2023-01-08T05:36:11.687Z,1.9
2023-01-08T05:37:11.689Z,1.9
2023-01-08T05:38:11.681Z,1.9
2023-01-08T05:39:11.734Z,1.9
2023-01-08T05:40:11.684Z,1.8
2023-01-08T05:41:11.698Z,1.8
2023-01-08T05:42:11.706Z,1.8
2023-01-08T05:43:11.681Z,1.8
2023-01-08T05:44:11.753Z,1.8
2023-01-08T05:45:11.725Z,1.8
2023-01-08T05:46:11.744Z,1.8
2023-01-08T05:47:11.697Z,1.8
2023-01-08T05:48:11.665Z,1.8
2023-01-08T05:49:11.675Z,1.8
2023-01-08T05:50:11.702Z,1.8
2023-01-08T05:51:11.706Z,1.8
2023-01-08T05:52:11.732Z,1.8
2023-01-08T05:53:11.705Z,1.8
2023-01-08T05:54:11.674Z,1.8
2023-01-08T05:55:11.695Z,1.8
2023-01-08T05:56:11.686Z,1.8
2023-01-08T05:57:11.733Z,1.8
2023-01-08T05:58:11.723Z,1.8
2023-01-08T05:59:11.721Z,1.8
2023-01-08T06:00:11.720Z,1.8
2023-01-08T06:01:11.798Z,1.8
2023-01-08T06:02:11.734Z,1.8
2023-01-08T06:03:11.777Z,1.8
2023-01-08T06:04:11.828Z,1.8
2023-01-08T06:05:11.738Z,1.8
2023-01-08T06:06:11.749Z,1.8
2023-01-08T06:07:11.695Z,1.8
2023-01-08T06:08:11.732Z,1.8
2023-01-08T06:09:11.689Z,1.8
2023-01-08T06:10:11.734Z,1.8
2023-01-08T06:11:11.692Z,1.8
2023-01-08T06:12:11.692Z,1.8
2023-01-08T06:13:11.713Z,1.8
2023-01-08T06:14:11.697Z,1.8
2023-01-08T06:15:11.715Z,1.8
2023-01-08T06:16:11.826Z,1.8
2023-01-08T06:17:11.744Z,1.8
2023-01-08T06:18:11.729Z,1.8
2023-01-08T06:19:11.722Z,1.8
2023-01-08T06:20:11.703Z,1.8
2023-01-08T06:21:11.731Z,1.8
2023-01-08T06:22:11.703Z,1.8
2023-01-08T06:23:11.724Z,1.8
2023-01-08T06:24:11.722Z,1.8
2023-01-08T06:25:11.717Z,1.8
2023-01-08T06:26:11.755Z,1.8
2023-01-08T06:27:11.732Z,1.8
2023-01-08T06:28:11.735Z,1.8
2023-01-08T06:29:11.791Z,1.8
2023-01-08T06:30:11.741Z,1.8
2023-01-08T06:31:11.776Z,1.8
2023-01-08T06:32:11.749Z,1.8
2023-01-08T06:33:11.753Z,1.8
2023-01-08T06:34:11.759Z,1.8
2023-01-08T06:35:11.779Z,1.8
2023-01-08T06:36:14.243Z,2.1
2023-01-08T06:37:11.737Z,2.1
2023-01-08T06:38:11.745Z,2.1
2023-01-08T06:39:11.740Z,2.2
2023-01-08T06:40:11.727Z,2.2
2023-01-08T06:41:11.725Z,2.2
2023-01-08T06:42:11.752Z,2.2
2023-01-08T06:43:11.767Z,2.2
2023-01-08T06:44:11.746Z,2.2
2023-01-08T06:45:11.730Z,2.2
2023-01-08T06:46:11.872Z,2.2
2023-01-08T06:47:11.783Z,2.2
2023-01-08T06:48:11.741Z,2.2
2023-01-08T06:49:11.785Z,2.2
2023-01-08T06:50:11.745Z,2.2
2023-01-08T06:51:11.741Z,2.2
2023-01-08T06:52:11.856Z,2.2
2023-01-08T06:53:11.787Z,2.2
2023-01-08T06:54:13.522Z,2.2
2023-01-08T06:55:11.837Z,2.2
2023-01-08T06:56:11.759Z,2.2
2023-01-08T06:57:11.782Z,2.2
2023-01-08T06:58:11.777Z,2.2
2023-01-08T06:59:11.811Z,2.2
2023-01-08T07:00:11.782Z,2.2
2023-01-08T07:01:11.883Z,2.2
2023-01-08T07:02:12.006Z,2.2
2023-01-08T07:03:11.803Z,2.2
2023-01-08T07:04:11.783Z,2.2
2023-01-08T07:05:11.756Z,2.2
2023-01-08T07:06:11.773Z,2.2
2023-01-08T07:07:11.754Z,2.2
2023-01-08T07:08:11.761Z,2.2
2023-01-08T07:09:11.839Z,2.2
2023-01-08T07:10:11.817Z,2.2
2023-01-08T07:11:11.810Z,2.2
2023-01-08T07:12:11.807Z,2.2
2023-01-08T07:13:11.791Z,2.2
2023-01-08T07:14:11.796Z,2.2
2023-01-08T07:15:11.838Z,2.2
2023-01-08T07:16:11.866Z,2.2
2023-01-08T07:17:11.807Z,2.2
2023-01-08T07:18:11.826Z,2.2
2023-01-08T07:19:11.812Z,2.2
2023-01-08T07:20:11.796Z,2.2
2023-01-08T07:21:11.811Z,2.2
2023-01-08T07:22:11.813Z,2.2
2023-01-08T07:23:11.799Z,2.2
2023-01-08T07:24:11.833Z,2.2
2023-01-08T07:25:11.803Z,2.2
2023-01-08T07:26:11.818Z,2.2
2023-01-08T07:27:11.803Z,2.2
2023-01-08T07:28:11.823Z,2.2
2023-01-08T07:29:11.800Z,2.6
2023-01-08T07:30:28.098Z,2.6
2023-01-08T07:31:12.011Z,2.6
2023-01-08T07:32:11.807Z,2.6
2023-01-08T07:33:11.826Z,2.6
2023-01-08T07:34:13.569Z,2.6
2023-01-08T07:35:11.816Z,2.6
2023-01-08T07:36:11.814Z,2.7
2023-01-08T07:37:11.813Z,2.7
2023-01-08T07:38:11.812Z,2.7
2023-01-08T07:39:11.815Z,2.7
2023-01-08T07:40:11.840Z,2.7
2023-01-08T07:41:11.812Z,2.7
2023-01-08T07:42:11.976Z,2.7
2023-01-08T07:43:11.796Z,2.7
2023-01-08T07:44:11.805Z,2.7
2023-01-08T07:45:11.844Z,2.7
2023-01-08T07:46:11.904Z,2.7
2023-01-08T07:47:11.860Z,2.7
2023-01-08T07:48:11.859Z,2.7
2023-01-08T07:49:11.818Z,2.7
2023-01-08T07:50:11.792Z,2.7
2023-01-08T07:51:11.832Z,2.7
2023-01-08T07:52:11.815Z,2.7
2023-01-08T07:53:11.866Z,2.7
2023-01-08T07:54:11.865Z,2.7
2023-01-08T07:55:11.795Z,2.7
2023-01-08T07:56:11.834Z,2.7
2023-01-08T07:57:11.826Z,2.7
2023-01-08T07:58:11.824Z,2.7
2023-01-08T07:59:11.826Z,2.7
2023-01-08T08:00:11.862Z,3.1
2023-01-08T08:01:11.856Z,3.1
2023-01-08T08:02:12.047Z,3.1
2023-01-08T08:03:12.064Z,3.1
2023-01-08T08:04:11.819Z,3.1
2023-01-08T08:05:11.824Z,3.1
2023-01-08T08:06:11.831Z,3.1
2023-01-08T08:07:11.830Z,3.1
2023-01-08T08:08:11.842Z,3.1
2023-01-08T08:09:11.863Z,3.1
2023-01-08T08:10:11.876Z,3.1
2023-01-08T08:11:11.816Z,3.1
2023-01-08T08:12:11.826Z,3.1
2023-01-08T08:13:11.824Z,3.1
2023-01-08T08:14:11.835Z,3.1
2023-01-08T08:15:11.842Z,3.1
2023-01-08T08:16:11.929Z,3.7
2023-01-08T08:17:11.864Z,3.7
2023-01-08T08:18:11.857Z,3.7
2023-01-08T08:19:11.843Z,3.7
2023-01-08T08:20:11.893Z,3.7
2023-01-08T08:21:11.887Z,3.7
2023-01-08T08:22:11.873Z,3.7
2023-01-08T08:23:11.829Z,3.7
2023-01-08T08:24:11.860Z,4.2
2023-01-08T08:25:11.838Z,4.2
2023-01-08T08:26:11.846Z,4.2
2023-01-08T08:27:11.838Z,4.4
2023-01-08T08:28:11.864Z,4.4
2023-01-08T08:29:11.870Z,4.7
2023-01-08T08:30:11.845Z,4.7
2023-01-08T08:31:11.909Z,4.7
2023-01-08T08:32:11.872Z,4.7
2023-01-08T08:33:11.874Z,4.7
2023-01-08T08:34:11.831Z,5.3
2023-01-08T08:35:11.871Z,5.3
2023-01-08T08:36:11.841Z,5.3
2023-01-08T08:37:11.923Z,5.3
2023-01-08T08:38:11.889Z,5.8
2023-01-08T08:39:11.829Z,5.8
2023-01-08T08:40:11.825Z,5.8
2023-01-08T08:41:11.863Z,5.8
2023-01-08T08:42:11.872Z,5.8
2023-01-08T08:43:11.886Z,5.8
2023-01-08T08:44:11.874Z,6.3
2023-01-08T08:45:11.838Z,6.3
2023-01-08T08:46:12.012Z,6.3
2023-01-08T08:47:11.849Z,6.3
2023-01-08T08:48:11.885Z,6.3
2023-01-08T08:49:11.930Z,6.3
2023-01-08T08:50:11.890Z,6.3
2023-01-08T08:51:11.883Z,6.9
2023-01-08T08:52:11.894Z,6.9
2023-01-08T08:53:11.912Z,6.9
2023-01-08T08:54:11.923Z,6.9
2023-01-08T08:55:11.914Z,7.4
2023-01-08T08:56:12.911Z,7.4
2023-01-08T08:57:11.877Z,7.4
2023-01-08T08:58:11.880Z,7.4
2023-01-08T08:59:11.885Z,7.9
2023-01-08T09:00:12.892Z,7.9
2023-01-08T09:01:11.949Z,7.9
2023-01-08T09:02:12.100Z,7.9
2023-01-08T09:03:11.955Z,8.5
2023-01-08T09:04:11.877Z,8.5
2023-01-08T09:05:11.926Z,8.5
2023-01-08T09:06:11.879Z,8.5
2023-01-08T09:07:11.883Z,8.5
2023-01-08T09:08:11.885Z,8.5
2023-01-08T09:09:11.911Z,9
2023-01-08T09:10:11.894Z,9
2023-01-08T09:11:14.255Z,9
2023-01-08T09:12:11.916Z,9
2023-01-08T09:13:11.908Z,9
2023-01-08T09:14:11.894Z,9.5
2023-01-08T09:15:11.893Z,9.5
2023-01-08T09:16:12.023Z,9.5
2023-01-08T09:17:11.912Z,9.5
2023-01-08T09:18:11.896Z,9.9
2023-01-08T09:19:12.932Z,10
2023-01-08T09:20:11.931Z,10
2023-01-08T09:21:11.940Z,10
2023-01-08T09:22:11.899Z,10
2023-01-08T09:23:11.949Z,10
2023-01-08T09:24:11.952Z,10
2023-01-08T09:25:11.908Z,10
2023-01-08T09:26:11.959Z,10
2023-01-08T09:27:11.957Z,10
2023-01-08T09:28:11.898Z,10.6
2023-01-08T09:29:11.983Z,10.6
2023-01-08T09:30:11.965Z,10.6
2023-01-08T09:31:12.036Z,10.6
2023-01-08T09:32:11.943Z,10.6
2023-01-08T09:33:11.956Z,10.6
2023-01-08T09:34:11.947Z,10.6
2023-01-08T09:35:11.960Z,11.1
2023-01-08T09:36:11.940Z,11.1
2023-01-08T09:37:11.946Z,11.1
2023-01-08T09:38:11.894Z,11.1
2023-01-08T09:39:11.943Z,11.1
2023-01-08T09:40:11.922Z,11.4
2023-01-08T09:41:11.935Z,11.4
2023-01-08T09:42:11.923Z,11.4
2023-01-08T09:43:11.943Z,11.4
2023-01-08T09:44:11.926Z,11.9
2023-01-08T09:45:11.922Z,11.9
2023-01-08T09:46:11.927Z,11.9
2023-01-08T09:47:11.948Z,11.9
2023-01-08T09:48:11.997Z,11.9
2023-01-08T09:49:11.948Z,11.9
2023-01-08T09:50:11.919Z,11.9
2023-01-08T09:51:11.946Z,11.9
2023-01-08T09:52:11.947Z,11.9
2023-01-08T09:53:11.922Z,12.4
2023-01-08T09:54:11.927Z,12.4
2023-01-08T09:55:11.917Z,12.4
2023-01-08T09:56:12.983Z,12.4
2023-01-08T09:57:11.959Z,12.4
2023-01-08T09:58:12.920Z,12.4
2023-01-08T09:59:11.958Z,12.4
2023-01-08T10:00:11.973Z,13
2023-01-08T10:01:12.016Z,13
2023-01-08T10:02:12.342Z,13
2023-01-08T10:03:11.952Z,13.6
2023-01-08T10:04:11.950Z,13.6
2023-01-08T10:05:11.939Z,13.6
2023-01-08T10:06:11.959Z,13.6
2023-01-08T10:07:11.942Z,13.6
2023-01-08T10:08:11.942Z,13.6
2023-01-08T10:09:11.926Z,13.6
2023-01-08T10:10:11.983Z,13.6
2023-01-08T10:11:11.940Z,13.6
2023-01-08T10:12:13.954Z,13.6
2023-01-08T10:13:11.991Z,13.6
2023-01-08T10:14:11.949Z,14
2023-01-08T10:15:11.939Z,14.1
2023-01-08T10:16:12.043Z,14.1
2023-01-08T10:17:11.942Z,14.1
2023-01-08T10:18:11.958Z,14.1
2023-01-08T10:19:11.988Z,14.1
2023-01-08T10:20:11.951Z,14.7
2023-01-08T10:21:11.943Z,14.7
2023-01-08T10:22:11.978Z,14.7
2023-01-08T10:23:11.965Z,14.7
2023-01-08T10:24:12.038Z,14.7
2023-01-08T10:25:12.012Z,14.7
2023-01-08T10:26:12.081Z,14.7
2023-01-08T10:27:11.947Z,14.7
2023-01-08T10:28:11.939Z,14.7
2023-01-08T10:29:11.936Z,14.7
2023-01-08T10:30:11.930Z,14.7
2023-01-08T10:31:11.988Z,14.7
2023-01-08T10:32:11.948Z,14.7
2023-01-08T10:33:11.965Z,14.7
2023-01-08T10:34:11.949Z,14.7
2023-01-08T10:35:11.933Z,14.7
2023-01-08T10:36:11.969Z,14.7
2023-01-08T10:37:12.207Z,14.9
2023-01-08T10:38:11.957Z,14.9
2023-01-08T10:39:12.217Z,14.9
2023-01-08T10:40:11.959Z,14.9
2023-01-08T10:41:11.981Z,14.9
2023-01-08T10:42:11.956Z,14.7
2023-01-08T10:43:11.958Z,14.1
2023-01-08T10:44:12.003Z,14.1
2023-01-08T10:45:11.943Z,14.1
2023-01-08T10:46:11.954Z,14.1
2023-01-08T10:47:11.983Z,14.1
2023-01-08T10:48:11.977Z,13.6
2023-01-08T10:49:11.976Z,13.6
2023-01-08T10:50:11.993Z,13.6
2023-01-08T10:51:11.950Z,13.6
2023-01-08T10:52:11.957Z,13.6
2023-01-08T10:53:11.952Z,13.6
2023-01-08T10:54:11.952Z,13.6
2023-01-08T10:55:11.989Z,14.2
2023-01-08T10:56:11.987Z,14.2
2023-01-08T10:57:11.936Z,14.2
2023-01-08T10:58:11.945Z,14.2
2023-01-08T10:59:11.977Z,14.2
2023-01-08T11:00:11.980Z,14.2
2023-01-08T11:01:12.107Z,14.2
2023-01-08T11:02:12.065Z,14.2
2023-01-08T11:03:11.962Z,14.2
2023-01-08T11:04:12.006Z,14.7
2023-01-08T11:05:11.986Z,14.7
2023-01-08T11:06:11.994Z,14.7
2023-01-08T11:07:11.971Z,14.7
2023-01-08T11:08:11.971Z,15.2
2023-01-08T11:09:12.032Z,15.2
2023-01-08T11:10:11.989Z,15.4
2023-01-08T11:11:11.984Z,15.4
2023-01-08T11:12:11.988Z,15.4
2023-01-08T11:13:11.999Z,15.4
2023-01-08T11:14:11.987Z,15.4
2023-01-08T11:15:12.002Z,15.4
2023-01-08T11:16:12.052Z,15.4
2023-01-08T11:17:11.968Z,15.4
2023-01-08T11:18:11.964Z,15.4
2023-01-08T11:19:11.998Z,15.4
2023-01-08T11:20:12.043Z,15.4
2023-01-08T11:21:12.010Z,15.4
2023-01-08T11:22:11.984Z,15.5
2023-01-08T11:23:11.998Z,15.5
2023-01-08T11:24:11.975Z,15.5
2023-01-08T11:25:13.939Z,15.5
2023-01-08T11:26:12.019Z,16
2023-01-08T11:27:11.994Z,16
2023-01-08T11:28:12.004Z,16
2023-01-08T11:29:12.014Z,16
2023-01-08T11:30:12.048Z,16
2023-01-08T11:31:12.108Z,16
2023-01-08T11:32:11.993Z,16
2023-01-08T11:33:12.013Z,16.5
2023-01-08T11:34:12.027Z,16.5
2023-01-08T11:35:12.020Z,16.5
2023-01-08T11:36:13.630Z,16
2023-01-08T11:37:12.002Z,16
2023-01-08T11:38:12.013Z,16
2023-01-08T11:39:12.043Z,16
2023-01-08T11:40:12.019Z,16
2023-01-08T11:41:11.978Z,16
2023-01-08T11:42:12.018Z,16
2023-01-08T11:43:12.017Z,16
2023-01-08T11:44:12.016Z,16
2023-01-08T11:45:12.073Z,15.5
2023-01-08T11:46:11.994Z,15.5
2023-01-08T11:47:12.009Z,14.9
2023-01-08T11:48:13.758Z,14.9
2023-01-08T11:49:12.022Z,14.4
2023-01-08T11:50:12.050Z,14.4
2023-01-08T11:51:12.010Z,14.4
2023-01-08T11:52:12.021Z,14.4
2023-01-08T11:53:12.020Z,14.4
2023-01-08T11:54:14.247Z,14.4
2023-01-08T11:55:12.019Z,14.4
2023-01-08T11:56:12.015Z,14.9
2023-01-08T11:57:12.025Z,14.9
2023-01-08T11:58:12.019Z,14.9
2023-01-08T11:59:12.015Z,14.9
2023-01-08T12:00:14.213Z,15.5
2023-01-08T12:01:12.127Z,15.5
2023-01-08T12:02:12.072Z,15.5
2023-01-08T12:03:12.060Z,15.5
2023-01-08T12:04:12.059Z,15.5
2023-01-08T12:05:12.020Z,15.5
2023-01-08T12:06:12.060Z,15.7
2023-01-08T12:07:11.999Z,15.7
2023-01-08T12:08:12.005Z,16
2023-01-08T12:09:11.999Z,16
2023-01-08T12:10:12.093Z,16
2023-01-08T12:11:12.027Z,16
2023-01-08T12:12:13.467Z,16
2023-01-08T12:13:12.044Z,16
2023-01-08T12:14:12.032Z,16
2023-01-08T12:15:12.112Z,16
2023-01-08T12:16:12.080Z,16
2023-01-08T12:17:12.054Z,16
2023-01-08T12:18:12.001Z,16
2023-01-08T12:19:12.038Z,16
2023-01-08T12:20:12.010Z,16
2023-01-08T12:21:12.006Z,16
2023-01-08T12:22:12.045Z,16
2023-01-08T12:23:12.015Z,16
2023-01-08T12:24:12.136Z,16
2023-01-08T12:25:12.027Z,16
2023-01-08T12:26:12.113Z,16
2023-01-08T12:27:12.007Z,16
2023-01-08T12:28:12.037Z,16
2023-01-08T12:29:12.037Z,16
2023-01-08T12:30:12.034Z,16
2023-01-08T12:31:12.052Z,16
2023-01-08T12:32:12.166Z,16
2023-01-08T12:33:12.078Z,16
2023-01-08T12:34:12.035Z,15.6
2023-01-08T12:35:12.015Z,15.6
2023-01-08T12:36:12.013Z,15.6
2023-01-08T12:37:12.027Z,15.6
2023-01-08T12:38:12.109Z,15.6
2023-01-08T12:39:12.054Z,15.6
2023-01-08T12:40:12.026Z,15.6
2023-01-08T12:41:12.054Z,15.6
2023-01-08T12:42:12.058Z,15.6
2023-01-08T12:43:12.039Z,15.6
2023-01-08T12:44:12.118Z,15.6
2023-01-08T12:45:12.021Z,15.6
2023-01-08T12:46:12.118Z,15.6
2023-01-08T12:47:12.041Z,15.6
2023-01-08T12:48:12.062Z,15.6
2023-01-08T12:49:12.058Z,15.6
2023-01-08T12:50:12.073Z,15.1
2023-01-08T12:51:12.117Z,15.1
2023-01-08T12:52:12.029Z,15.1
2023-01-08T12:53:12.060Z,15.1
2023-01-08T12:54:12.050Z,15.1
2023-01-08T12:55:12.055Z,14.6
2023-01-08T12:56:12.048Z,14.6
2023-01-08T12:57:12.101Z,14.6
2023-01-08T12:58:12.085Z,14.6
2023-01-08T12:59:12.065Z,14.6
2023-01-08T13:00:12.068Z,14.1
2023-01-08T13:01:12.210Z,14.1
2023-01-08T13:02:12.212Z,14.1
2023-01-08T13:03:12.114Z,13.8
2023-01-08T13:04:12.076Z,13.8
2023-01-08T13:05:12.058Z,13.8
2023-01-08T13:06:12.058Z,13.8
2023-01-08T13:07:12.060Z,13.8
2023-01-08T13:08:12.055Z,13.6
2023-01-08T13:09:12.121Z,13.6
2023-01-08T13:10:12.068Z,13.6
2023-01-08T13:11:12.077Z,13.6
2023-01-08T13:12:12.102Z,13.6
2023-01-08T13:13:12.078Z,13.6
2023-01-08T13:14:12.089Z,13.6
2023-01-08T13:15:12.084Z,13.6
2023-01-08T13:16:12.148Z,13.6
2023-01-08T13:17:12.085Z,13.6
2023-01-08T13:18:12.083Z,13.6
2023-01-08T13:19:12.103Z,13.6
2023-01-08T13:20:12.117Z,13.6
2023-01-08T13:21:12.082Z,13.6
2023-01-08T13:22:12.077Z,13.6
2023-01-08T13:23:12.089Z,13.6
2023-01-08T13:24:12.058Z,13.6
2023-01-08T13:25:12.095Z,13.1
2023-01-08T13:26:12.091Z,13.1
2023-01-08T13:27:12.093Z,13.1
2023-01-08T13:28:12.093Z,13.1
2023-01-08T13:29:12.062Z,13.1
2023-01-08T13:30:12.084Z,13.1
2023-01-08T13:31:12.103Z,13.1
2023-01-08T13:32:12.119Z,13.1
2023-01-08T13:33:12.101Z,13.1
2023-01-08T13:34:12.099Z,13.1
2023-01-08T13:35:12.119Z,13.1
2023-01-08T13:36:12.098Z,13.1
2023-01-08T13:37:23.288Z,13.1
2023-01-08T13:38:12.073Z,13.1
2023-01-08T13:39:12.116Z,12.5
2023-01-08T13:40:12.091Z,12.5
2023-01-08T13:41:12.127Z,12.5
2023-01-08T13:42:12.091Z,12.5